createdAt,value
2023-05-17T00:01:59.797Z,81.21
2023-05-17T00:07:01.405Z,81.16
2023-05-17T00:12:03.269Z,80.53
2023-05-17T00:17:05.151Z,80.19
2023-05-17T00:22:06.749Z,80.66
2023-05-17T00:27:08.354Z,81.44
2023-05-17T00:32:09.925Z,81.81
2023-05-17T00:37:11.484Z,80.56
2023-05-17T00:42:13.353Z,82.56
2023-05-17T00:47:14.933Z,82.18
2023-05-17T00:52:16.650Z,82.40
2023-05-17T00:57:18.542Z,82.38
2023-05-17T01:02:20.197Z,82.93
2023-05-17T01:07:21.894Z,83.05
2023-05-17T01:12:46.194Z,82.62
2023-05-17T01:18:06.160Z,83.42
2023-05-17T01:23:25.982Z,84.60
2023-05-17T01:28:28.220Z,84.50
2023-05-17T01:33:31.260Z,83.85
2023-05-17T01:38:32.912Z,84.89
2023-05-17T01:43:38.381Z,84.10
2023-05-17T01:48:48.909Z,84.35
2023-05-17T01:53:57.249Z,84.21
2023-05-17T01:59:03.060Z,85.39
2023-05-17T02:04:05.081Z,85.12
2023-05-17T02:09:06.780Z,85.20
2023-05-17T02:14:08.330Z,85.06
2023-05-17T02:19:09.880Z,85.22
2023-05-17T02:24:11.465Z,86.19
2023-05-17T02:29:13.058Z,86.77
2023-05-17T02:34:14.635Z,85.96
2023-05-17T02:39:16.717Z,87.21
2023-05-17T02:44:18.368Z,86.90
2023-05-17T02:49:19.953Z,87.30
2023-05-17T02:54:21.737Z,87.24
2023-05-17T02:59:23.271Z,87.21
2023-05-17T03:04:24.880Z,86.67
2023-05-17T03:09:26.546Z,86.53
2023-05-17T03:14:28.117Z,86.02
2023-05-17T03:19:29.884Z,86.88
2023-05-17T03:24:31.430Z,87.18
2023-05-17T03:29:32.955Z,87.70
2023-05-17T03:34:34.493Z,87.78
2023-05-17T03:39:36.015Z,87.91
2023-05-17T03:44:37.553Z,88.24
2023-05-17T03:49:39.300Z,88.51
2023-05-17T03:54:40.881Z,88.87
2023-05-17T03:59:42.556Z,88.46
2023-05-17T04:04:51.180Z,89.13
2023-05-17T04:09:53.441Z,88.78
2023-05-17T04:14:55.108Z,88.32
2023-05-17T04:19:56.814Z,88.22
2023-05-17T04:24:58.760Z,88.40
2023-05-17T04:30:00.789Z,88.40
2023-05-17T04:35:03.330Z,88.34
2023-05-17T04:40:07.129Z,88.09
2023-05-17T04:45:09.458Z,89.01
2023-05-17T04:50:11.654Z,88.83
2023-05-17T04:55:13.677Z,88.95
2023-05-17T05:00:22.548Z,88.97
2023-05-17T05:05:25.571Z,90.06
2023-05-17T05:10:28.797Z,89.43
2023-05-17T05:15:32.380Z,90.07
2023-05-17T05:20:34.040Z,89.43
2023-05-17T05:25:37.941Z,89.57
2023-05-17T05:30:46.578Z,88.79
2023-05-17T05:35:48.657Z,88.83
2023-05-17T05:40:50.337Z,88.82
2023-05-17T05:45:51.874Z,89.22
2023-05-17T05:50:53.408Z,88.62
2023-05-17T05:55:54.965Z,88.11
2023-05-17T06:00:57.459Z,87.71
2023-05-17T06:05:59.117Z,87.63
2023-05-17T06:11:03.474Z,87.45
2023-05-17T06:16:06.244Z,87.51
2023-05-17T06:21:07.996Z,87.48
2023-05-17T06:26:10.955Z,88.07
2023-05-17T06:31:12.644Z,88.27
2023-05-17T06:36:14.459Z,88.30
2023-05-17T06:41:16.194Z,88.80
2023-05-17T06:46:17.773Z,88.65
2023-05-17T06:51:19.332Z,88.39
2023-05-17T06:56:22.047Z,88.47
2023-05-17T07:01:23.556Z,89.06
2023-05-17T07:06:25.218Z,88.43
2023-05-17T07:11:26.776Z,88.86
2023-05-17T07:16:28.914Z,88.99
2023-05-17T07:21:32.065Z,88.64
2023-05-17T07:26:33.683Z,88.19
2023-05-17T07:31:35.473Z,87.30
2023-05-17T07:36:37.311Z,87.18
2023-05-17T07:41:40.028Z,87.01
2023-05-17T07:46:42.025Z,86.21
2023-05-17T07:51:44.176Z,86.02
2023-05-17T07:56:45.754Z,86.38
2023-05-17T08:01:47.504Z,86.36
2023-05-17T08:06:50.250Z,86.10
2023-05-17T08:11:51.896Z,86.32
2023-05-17T08:16:53.425Z,85.97
2023-05-17T08:21:54.974Z,86.31
2023-05-17T08:26:56.659Z,86.94
2023-05-17T08:31:58.485Z,87.08
2023-05-17T08:37:00.167Z,87.30
2023-05-17T08:42:03.314Z,87.42
2023-05-17T08:47:06.648Z,87.09
2023-05-17T08:52:10.465Z,87.09
2023-05-17T08:57:13.978Z,87.02
2023-05-17T09:02:16.377Z,86.58
2023-05-17T09:07:18.113Z,87.21
2023-05-17T09:12:25.346Z,87.43
2023-05-17T09:17:27.511Z,86.96
2023-05-17T09:22:29.277Z,87.07
2023-05-17T09:27:31.901Z,86.62
2023-05-17T09:32:33.629Z,86.49
2023-05-17T09:37:38.530Z,85.98
2023-05-17T09:42:40.867Z,86.33
2023-05-17T09:47:42.534Z,86.64
2023-05-17T09:52:44.396Z,86.19
2023-05-17T09:57:47.118Z,85.96
2023-05-17T10:02:51.160Z,86.20
2023-05-17T10:07:56.420Z,86.38
2023-05-17T10:12:59.533Z,85.89
2023-05-17T10:18:02.110Z,85.53
2023-05-17T10:23:06.337Z,85.78
2023-05-17T10:28:12.757Z,86.02
2023-05-17T10:33:16.280Z,85.90
2023-05-17T10:38:20.361Z,85.65
2023-05-17T10:43:23.660Z,85.64
2023-05-17T10:48:29.119Z,85.35
2023-05-17T10:53:30.875Z,85.28
2023-05-17T10:58:32.439Z,84.70
2023-05-17T11:03:34.634Z,84.57
2023-05-17T11:08:38.860Z,84.44
2023-05-17T11:13:56.283Z,85.30
2023-05-17T11:19:08.061Z,85.71
2023-05-17T11:24:11.287Z,85.25
2023-05-17T11:29:13.134Z,85.56
2023-05-17T11:34:14.986Z,85.81
2023-05-17T11:39:21.119Z,86.25
2023-05-17T11:44:30.734Z,85.26
2023-05-17T11:49:37.144Z,84.62
2023-05-17T11:54:40.752Z,84.16
2023-05-17T11:59:45.611Z,83.85
2023-05-17T12:04:47.232Z,83.88
2023-05-17T12:09:49.376Z,84.01
2023-05-17T12:14:51.031Z,83.72
2023-05-17T12:19:54.194Z,83.72
2023-05-17T12:24:56.078Z,84.15
2023-05-17T12:29:57.678Z,84.04
2023-05-17T12:34:59.398Z,84.15
2023-05-17T12:40:06.753Z,84.36
2023-05-17T12:45:13.227Z,84.66
2023-05-17T12:50:14.842Z,85.26
2023-05-17T12:55:16.471Z,85.14
2023-05-17T13:00:33.614Z,85.00
2023-05-17T13:05:35.478Z,85.68
2023-05-17T13:10:37.076Z,86.20
2023-05-17T13:15:38.623Z,86.21
2023-05-17T13:20:40.243Z,86.37
2023-05-17T13:25:41.790Z,85.99
2023-05-17T13:30:56.870Z,85.87
2023-05-17T13:35:58.631Z,85.04
2023-05-17T13:41:00.494Z,84.21
2023-05-17T13:46:03.962Z,84.18
2023-05-17T13:51:05.553Z,83.66
2023-05-17T13:56:07.734Z,84.10
2023-05-17T14:01:09.748Z,84.15
2023-05-17T14:06:11.425Z,84.49
2023-05-17T14:11:13.266Z,84.50
2023-05-17T14:16:14.804Z,84.58
2023-05-17T14:21:16.380Z,84.50
2023-05-17T14:26:18.135Z,85.13
2023-05-17T14:31:19.662Z,85.00
2023-05-17T14:36:21.274Z,84.72
2023-05-17T14:41:23.089Z,84.60
2023-05-17T14:46:24.852Z,84.38
2023-05-17T14:51:26.725Z,85.08
2023-05-17T14:56:28.777Z,85.53
2023-05-17T15:01:30.299Z,85.92
2023-05-17T15:06:32.444Z,85.57
2023-05-17T15:11:34.204Z,85.62
2023-05-17T15:16:36.220Z,85.51
2023-05-17T15:21:38.041Z,85.97
2023-05-17T15:26:39.566Z,85.98
2023-05-17T15:31:41.400Z,85.76
2023-05-17T15:36:42.983Z,85.55
2023-05-17T15:41:45.558Z,85.63
2023-05-17T15:46:47.117Z,86.36
2023-05-17T15:51:48.687Z,86.73
2023-05-17T15:56:52.945Z,86.56
2023-05-17T16:01:54.504Z,86.38
2023-05-17T16:06:56.188Z,86.76
2023-05-17T16:11:57.748Z,87.21
2023-05-17T16:16:59.320Z,86.92
2023-05-17T16:22:01.008Z,85.94
2023-05-17T16:27:03.491Z,84.99
2023-05-17T16:32:07.937Z,84.31
2023-05-17T16:37:09.676Z,84.49
2023-05-17T16:42:11.455Z,84.69
2023-05-17T16:47:13.133Z,85.00
2023-05-17T16:52:14.733Z,85.25
2023-05-17T16:57:16.533Z,85.29
2023-05-17T17:02:18.156Z,85.58
2023-05-17T17:07:20.150Z,85.83
2023-05-17T17:12:25.166Z,85.96
2023-05-17T17:17:29.189Z,86.05
2023-05-17T17:22:30.775Z,86.39
2023-05-17T17:27:32.337Z,86.31
2023-05-17T17:32:34.155Z,86.56
2023-05-17T17:37:36.200Z,85.99
2023-05-17T17:42:37.782Z,86.10
2023-05-17T17:47:39.366Z,85.84
2023-05-17T17:52:41.026Z,86.39
2023-05-17T17:57:42.710Z,86.72
2023-05-17T18:02:44.555Z,86.93
2023-05-17T18:07:46.116Z,86.92
2023-05-17T18:12:49.544Z,86.93
2023-05-17T18:17:54.227Z,86.88
2023-05-17T18:22:55.938Z,86.59
2023-05-17T18:27:57.941Z,87.37
2023-05-17T18:32:59.528Z,86.96
2023-05-17T18:38:01.337Z,87.22
2023-05-17T18:43:02.926Z,87.33
2023-05-17T18:48:04.784Z,87.38
2023-05-17T18:53:06.697Z,87.05
2023-05-17T18:58:08.309Z,87.00
2023-05-17T19:03:09.904Z,87.47
2023-05-17T19:08:11.490Z,87.34
2023-05-17T19:13:13.825Z,87.30
2023-05-17T19:18:15.539Z,87.44
2023-05-17T19:23:17.153Z,86.86
2023-05-17T19:28:19.592Z,87.56
2023-05-17T19:33:21.145Z,87.47
2023-05-17T19:38:22.728Z,87.06
2023-05-17T19:43:25.356Z,87.58
2023-05-17T19:48:26.876Z,86.71
2023-05-17T19:53:36.982Z,87.97
2023-05-17T19:58:46.174Z,88.82
2023-05-17T20:03:47.897Z,88.75
2023-05-17T20:08:49.556Z,88.83
2023-05-17T20:13:51.276Z,88.81
2023-05-17T20:18:52.884Z,88.84
2023-05-17T20:24:01.353Z,88.42
2023-05-17T20:29:05.742Z,88.25
2023-05-17T20:34:07.511Z,88.60
2023-05-17T20:39:09.296Z,88.38
2023-05-17T20:44:12.711Z,88.01
2023-05-17T20:49:14.384Z,88.26
2023-05-17T20:54:15.946Z,87.65
2023-05-17T20:59:20.989Z,87.17
2023-05-17T21:04:58.139Z,87.61
2023-05-17T21:09:59.857Z,87.75
2023-05-17T21:15:16.708Z,87.55
2023-05-17T21:20:19.652Z,87.75
2023-05-17T21:25:22.066Z,86.94
2023-05-17T21:30:25.257Z,86.75
2023-05-17T21:35:26.814Z,86.65
2023-05-17T21:40:28.783Z,87.13
2023-05-17T21:45:30.643Z,87.13
2023-05-17T21:50:32.586Z,87.02
2023-05-17T21:55:41.263Z,86.60
2023-05-17T22:00:56.364Z,85.80
2023-05-17T22:05:58.060Z,85.74
2023-05-17T22:10:59.686Z,85.51
2023-05-17T22:16:02.081Z,84.74
2023-05-17T22:21:03.777Z,84.34
2023-05-17T22:26:05.356Z,83.91
2023-05-17T22:31:07.584Z,83.24
2023-05-17T22:36:14.093Z,79.75
2023-05-17T22:41:15.934Z,77.79
2023-05-17T22:46:17.551Z,77.33
2023-05-17T22:51:19.810Z,76.82
2023-05-17T22:56:21.546Z,77.08
2023-05-17T23:01:23.159Z,76.83
2023-05-17T23:06:26.233Z,76.84
2023-05-17T23:11:28.471Z,76.56
2023-05-17T23:16:30.065Z,76.36
2023-05-17T23:21:33.441Z,74.79
2023-05-17T23:26:35.338Z,73.51
2023-05-17T23:31:37.718Z,74.19
2023-05-17T23:36:39.510Z,72.83
2023-05-17T23:41:41.145Z,73.09
2023-05-17T23:46:44.564Z,73.29
2023-05-17T23:51:46.627Z,73.29
2023-05-17T23:56:48.249Z,72.93
